Flight Track Log - Related Links

Times and Time Zones

All times are in EDT time to prevent confusion due to time zone crossing. See the N5253C flight status page for this flight to view local times or setup timezone preferences in your user account.

Time Position Orientation Groundspeed Altitude Reporting Facility
EDT Latitude Longitude Course Direction KTS MPH feet Rate Location/Type
Tue 09:14:49 PM 42.2261 -83.5472 223° Southwest 69 79 1,000  Level Cleveland Center
Tue 09:15:21 PM 42.2189 -83.5564 223° Southwest 77 89 1,300 577 Climbing FAA TRACON SMA TRACON (SMA)
Tue 09:15:41 PM 42.2161 -83.5642 244° Southwest 88 101 1,500 600 Climbing FAA TRACON SMA TRACON (SMA)
Tue 09:16:01 PM 42.2167 -83.5714 276° West 69 79 1,700 750 Climbing FAA TRACON SMA TRACON (SMA)
Tue 09:16:21 PM 42.2175 -83.5814 276° West 70 81 2,000 769 Climbing FAA TRACON SMA TRACON (SMA)
Tue 09:16:40 PM 42.2178 -83.5894 273° West 69 79 2,200 450 Climbing FAA TRACON SMA TRACON (SMA)
Tue 09:17:01 PM 42.2183 -83.5975 275° West 69 79 2,300 585 Climbing FAA TRACON SMA TRACON (SMA)
Tue 09:17:21 PM 42.2192 -83.6081 276° West 71 82 2,600 750 Climbing FAA TRACON SMA TRACON (SMA)
Tue 09:17:41 PM 42.2192 -83.6164 270° West 72 83 2,800 600 Climbing FAA TRACON SMA TRACON (SMA)
Tue 09:18:01 PM 42.2197 -83.6250 275° West 74 85 3,000 600 Climbing FAA TRACON SMA TRACON (SMA)
Tue 09:18:21 PM 42.2200 -83.6361 272° West 75 86 3,200 450 Climbing FAA TRACON SMA TRACON (SMA)
Tue 09:18:41 PM 42.2203 -83.6450 272° West 76 87 3,300 462 Climbing FAA TRACON SMA TRACON (SMA)
Tue 09:19:00 PM 42.2206 -83.6542 272° West 78 90 3,500 600 Climbing FAA TRACON SMA TRACON (SMA)
Tue 09:19:21 PM 42.2214 -83.6658 276° West 79 91 3,700 585 Climbing FAA TRACON SMA TRACON (SMA)
Tue 09:19:41 PM 42.2219 -83.6756 274° West 80 92 3,900 600 Climbing FAA TRACON SMA TRACON (SMA)
Tue 09:20:01 PM 42.2222 -83.6847 272° West 80 92 4,100 600 Climbing FAA TRACON SMA TRACON (SMA)
Tue 09:20:21 PM 42.2239 -83.6953 282° West 75 86 4,300 600 Climbing FAA TRACON SMA TRACON (SMA)
Tue 09:20:41 PM 42.2244 -83.7036 275° West 71 82 4,500 600 Climbing FAA TRACON SMA TRACON (SMA)
Tue 09:21:01 PM 42.2250 -83.7114 276° West 70 81 4,700 615 Climbing FAA TRACON SMA TRACON (SMA)
Tue 09:21:20 PM 42.2258 -83.7219 276° West 71 82 4,900 450 Climbing FAA TRACON SMA TRACON (SMA)
Tue 09:21:41 PM 42.2269 -83.7306 280° West 74 85 5,000 439 Climbing FAA TRACON SMA TRACON (SMA)
Tue 09:22:01 PM 42.2281 -83.7392 280° West 73 84 5,200 600 Climbing FAA TRACON SMA TRACON (SMA)
Tue 09:22:21 PM 42.2289 -83.7497 276° West 73 84 5,400 600 Climbing FAA TRACON SMA TRACON (SMA)
Tue 09:22:41 PM 42.2297 -83.7575 278° West 71 82 5,600 476 Climbing FAA TRACON SMA TRACON (SMA)
Tue 09:23:24 PM 42.2303 -83.7742 273° West 63 72 5,900 400 Climbing FAA TRACON SMA TRACON (SMA)
Tue 09:23:41 PM 42.2311 -83.7808 280° West 60 69 6,000 162 Climbing FAA TRACON SMA TRACON (SMA)
Tue 09:24:01 PM 42.2319 -83.7894 277° West 71 82 6,000  Level FAA TRACON SMA TRACON (SMA)
Tue 09:24:21 PM 42.2333 -83.8017 279° West 81 93 6,000  Level FAA TRACON SMA TRACON (SMA)
Tue 09:24:41 PM 42.2344 -83.8119 278° West 85 98 6,000  Level FAA TRACON SMA TRACON (SMA)
Tue 09:25:01 PM 42.2353 -83.8228 276° West 90 104 6,000  Level FAA TRACON SMA TRACON (SMA)
Tue 09:25:21 PM 42.2364 -83.8358 277° West 89 102 6,000  Level FAA TRACON SMA TRACON (SMA)
Tue 09:25:41 PM 42.2378 -83.8461 280° West 89 102 6,000  Level FAA TRACON SMA TRACON (SMA)
Tue 09:26:01 PM 42.2386 -83.8558 277° West 87 100 6,000  Level FAA TRACON SMA TRACON (SMA)
Tue 09:26:21 PM 42.2397 -83.8678 277° West 85 98 6,000  Level FAA TRACON SMA TRACON (SMA)
Tue 09:26:41 PM 42.2406 -83.8778 276° West 85 98 6,000  Level FAA TRACON SMA TRACON (SMA)
Tue 09:27:01 PM 42.2411 -83.8872 275° West 84 97 6,000  Level FAA TRACON SMA TRACON (SMA)
Tue 09:27:21 PM 42.2417 -83.8992 274° West 82 94 6,000  Level FAA TRACON SMA TRACON (SMA)
Tue 09:27:41 PM 42.2422 -83.9086 275° West 82 94 6,000  Level FAA TRACON SMA TRACON (SMA)
Tue 09:28:01 PM 42.2428 -83.9186 274° West 84 97 6,000  Level FAA TRACON SMA TRACON (SMA)
Tue 09:28:21 PM 42.2436 -83.9308 275° West 85 98 6,000  Level FAA TRACON SMA TRACON (SMA)
Tue 09:28:41 PM 42.2442 -83.9406 274° West 84 97 6,000  Level FAA TRACON SMA TRACON (SMA)
Tue 09:29:01 PM 42.2450 -83.9503 277° West 84 97 6,000  Level FAA TRACON SMA TRACON (SMA)
Tue 09:29:21 PM 42.2458 -83.9628 275° West 87 100 6,000  Level FAA TRACON SMA TRACON (SMA)
Tue 09:29:41 PM 42.2467 -83.9731 276° West 88 101 6,000  Level FAA TRACON SMA TRACON (SMA)
Tue 09:30:01 PM 42.2472 -83.9839 274° West 90 104 6,000  Level FAA TRACON SMA TRACON (SMA)
Tue 09:30:21 PM 42.2483 -83.9969 277° West 91 105 6,000  Level FAA TRACON SMA TRACON (SMA)
Tue 09:30:41 PM 42.2492 -84.0075 276° West 91 105 6,000  Level FAA TRACON SMA TRACON (SMA)
Tue 09:31:01 PM 42.2503 -84.0206 277° West 91 105 6,000  Level FAA TRACON SMA TRACON (SMA)
Tue 09:31:21 PM 42.2511 -84.0311 276° West 91 105 6,000  Level FAA TRACON SMA TRACON (SMA)
Tue 09:31:41 PM 42.2525 -84.0414 280° West 90 104 6,000 -150 Level FAA TRACON SMA TRACON (SMA)
Tue 09:32:01 PM 42.2533 -84.0514 276° West 89 102 5,900 -150 Descending FAA TRACON SMA TRACON (SMA)
Tue 09:32:21 PM 42.2539 -84.0642 273° West 89 102 5,900  Level FAA TRACON SMA TRACON (SMA)
Tue 09:32:41 PM 42.2547 -84.0747 276° West 90 104 5,900 150 Level FAA TRACON SMA TRACON (SMA)
Tue 09:33:01 PM 42.2558 -84.0856 278° West 91 105 6,000 146 Climbing FAA TRACON SMA TRACON (SMA)
Tue 09:33:22 PM 42.2564 -84.0986 273° West 91 105 6,000 -150 Level FAA TRACON SMA TRACON (SMA)
Tue 09:33:41 PM 42.2575 -84.1092 278° West 92 106 5,900  Descending FAA TRACON SMA TRACON (SMA)
Tue 09:34:01 PM 42.2581 -84.1203 274° West 93 107 6,000 150 Climbing FAA TRACON SMA TRACON (SMA)
Tue 09:34:21 PM 42.2583 -84.1336 272° West 93 107 6,000 -150 Level FAA TRACON SMA TRACON (SMA)
Tue 09:34:41 PM 42.2583 -84.1447 270° West 94 108 5,900 -150 Descending FAA TRACON SMA TRACON (SMA)
Tue 09:35:01 PM 42.2592 -84.1583 275° West 94 108 5,900  Level FAA TRACON SMA TRACON (SMA)
Tue 09:35:21 PM 42.2600 -84.1692 276° West 94 108 5,900  Level FAA TRACON SMA TRACON (SMA)
Tue 09:35:41 PM 42.2619 -84.1797 284° West 96 110 5,900  Level FAA TRACON SMA TRACON (SMA)
Tue 09:36:01 PM 42.2636 -84.1931 280° West 93 107 5,900  Level FAA TRACON SMA TRACON (SMA)
Tue 09:36:21 PM 42.2628 -84.2039 273° West 95 109 5,900  Level FAA TRACON SMA TRACON (SMA)
Tue 09:36:41 PM 42.2619 -84.2147 264° West 95 109 5,900  Level FAA TRACON SMA TRACON (SMA)
Tue 09:37:01 PM 42.2608 -84.2256 262° West 94 108 5,900  Level FAA TRACON SMA TRACON (SMA)
Tue 09:37:22 PM 42.2603 -84.2389 267° West 93 107 5,900  Level FAA TRACON SMA TRACON (SMA)
Tue 09:37:41 PM 42.2603 -84.2494 270° West 93 107 5,900  Level FAA TRACON SMA TRACON (SMA)
Tue 09:38:01 PM 42.2606 -84.2603 272° West 92 106 5,900  Level FAA TRACON SMA TRACON (SMA)
Tue 09:38:22 PM 42.2597 -84.2733 265° West 92 106 5,900  Level FAA TRACON SMA TRACON (SMA)
Tue 09:38:41 PM 42.2592 -84.2839 266° West 91 105 5,900  Level FAA TRACON SMA TRACON (SMA)
Tue 09:39:01 PM 42.2589 -84.2944 268° West 91 105 5,900  Level FAA TRACON SMA TRACON (SMA)
Tue 09:39:21 PM 42.2592 -84.3078 272° West 92 106 5,900 150 Level FAA TRACON SMA TRACON (SMA)
Tue 09:39:41 PM 42.2594 -84.3183 272° West 92 106 6,000 150 Climbing FAA TRACON SMA TRACON (SMA)
Tue 09:40:01 PM 42.2594 -84.3286 270° West 90 104 6,000  Level FAA TRACON SMA TRACON (SMA)
Tue 09:40:21 PM 42.2589 -84.3417 267° West 90 104 6,000 -150 Level FAA TRACON SMA TRACON (SMA)
Tue 09:40:41 PM 42.2589 -84.3525 270° West 92 106 5,900 -150 Descending FAA TRACON SMA TRACON (SMA)
Tue 09:41:01 PM 42.2597 -84.3658 275° West 93 107 5,900  Level FAA TRACON SMA TRACON (SMA)
Tue 09:41:21 PM 42.2600 -84.3769 272° West 93 107 5,900 146 Level FAA TRACON SMA TRACON (SMA)
Tue 09:41:42 PM 42.2608 -84.3881 276° West 95 109 6,000 150 Climbing FAA TRACON SMA TRACON (SMA)
Tue 09:42:01 PM 42.2606 -84.4019 268° West 96 110 6,000  Level FAA TRACON SMA TRACON (SMA)
Tue 09:42:21 PM 42.2594 -84.4131 262° West 96 110 6,000  Level FAA TRACON SMA TRACON (SMA)
Tue 09:42:41 PM 42.2581 -84.4242 260° West 97 112 6,000 -150 Level FAA TRACON SMA TRACON (SMA)
Tue 09:43:01 PM 42.2575 -84.4378 267° West 96 110 5,900 -146 Descending FAA TRACON SMA TRACON (SMA)
Tue 09:43:22 PM 42.2600 -84.4489 287° West 93 107 5,900  Level FAA TRACON SMA TRACON (SMA)
Tue 09:43:41 PM 42.2608 -84.4600 276° West 96 110 5,900 154 Level FAA TRACON SMA TRACON (SMA)
Tue 09:44:01 PM 42.2603 -84.4706 266° West 93 107 6,000  Climbing FAA TRACON SMA TRACON (SMA)
Tue 09:44:21 PM 42.2583 -84.4814 256° West 94 108 5,900 -150 Descending FAA TRACON SMA TRACON (SMA)
Tue 09:44:41 PM 42.2561 -84.4947 257° West 94 108 5,900  Level FAA TRACON SMA TRACON (SMA)
Tue 09:45:02 PM 42.2589 -84.5081 286° West 101 116 5,900  Level FAA TRACON SMA TRACON (SMA)
Tue 09:45:21 PM 42.2581 -84.5181 264° West 94 108 5,900  Level FAA TRACON SMA TRACON (SMA)
Tue 09:45:41 PM 42.2575 -84.5300 266° West 94 108 5,900  Level FAA TRACON SMA TRACON (SMA)
Tue 09:46:01 PM 42.2556 -84.5442 259° West 99 114 5,900  Level FAA TRACON SMA TRACON (SMA)
Tue 09:46:21 PM 42.2556 -84.5442 151° Southeast 99 114 5,900 52 Level FAA TRACON SMA TRACON (SMA)
Tue 09:47:56 PM 42.2506 -84.6081 264° West 98 113 6,000 38 Climbing Chicago Center
Tue 09:48:57 PM 42.2486 -84.6461 266° West 101 116 6,000  Level Chicago Center
Tue 09:49:59 PM 42.2372 -84.6778 244° Southwest 100 115 6,000  Level Chicago Center
Tue 09:51:00 PM 42.2181 -84.7167 236° Southwest 103 119 6,000  Level Chicago Center
Tue 09:52:01 PM 42.2028 -84.7508 239° Southwest 105 121 6,000 -195 Level Chicago Center
Tue 09:53:03 PM 42.1928 -84.7844 248° West 101 116 5,600 -439 Descending Chicago Center
Tue 09:54:04 PM 42.1833 -84.8167 248° West 95 109 5,100 -492 Descending Chicago Center
Tue 09:55:05 PM 42.1753 -84.8525 253° West 99 114 4,600 -488 Descending Chicago Center
Tue 09:56:07 PM 42.1653 -84.8858 248° West 97 112 4,100 -293 Descending Chicago Center
Tue 09:57:08 PM 42.1539 -84.9197 246° West 98 113 4,000 -49 Descending Chicago Center
Tue 09:58:09 PM 42.1411 -84.9583 246° West 107 123 4,000  Level Chicago Center
Tue 09:59:14 PM 42.1278 -85.0056 249° West 113 130 4,000  Level Chicago Center
Tue 10:00:15 PM 42.1150 -85.0433 245° Southwest 112 129 4,000  Level Chicago Center
Tue 10:01:17 PM 42.1022 -85.0806 245° Southwest 110 127 4,000  Level Chicago Center
Tue 10:02:18 PM 42.0942 -85.1214 255° West 112 129 4,000  Level Chicago Center
Tue 10:03:19 PM 42.0883 -85.1608 259° West 111 128 4,000  Level Chicago Center
Tue 10:04:20 PM 42.0819 -85.2006 258° West 109 125 4,000  Level Chicago Center
Tue 10:05:22 PM 42.0756 -85.2408 258° West 110 127 4,000  Level Chicago Center
Tue 10:06:23 PM 42.0661 -85.2878 255° West 110 127 4,000  Level Chicago Center
Tue 10:07:24 PM 42.0597 -85.3281 258° West 110 127 4,000 -293 Level Chicago Center
Tue 10:08:26 PM 42.0547 -85.3672 260° West 108 124 3,400 -634 Descending Chicago Center
Tue 10:09:27 PM 42.0478 -85.4083 257° West 111 128 2,700 -443 Descending Chicago Center
Tue 10:10:28 PM 42.0428 -85.4511 261° West 114 131 2,500 -98 Descending Chicago Center
Tue 10:11:29 PM 42.0508 -85.4878 286° West 112 129 2,500  Level Chicago Center
Tue 10:12:31 PM 42.0744 -85.5044 332° Northwest 103 119 2,500  Level Chicago Center
Tue 10:13:32 PM 42.0986 -85.5153 342° North 96 110 2,500  Level Chicago Center
Tue 10:14:33 PM 42.1250 -85.5189 354° North 95 109 2,500 -148 Level Chicago Center
Tue 10:15:34 PM 42.1556 -85.5272 349° North 94 108 2,200 -443 Descending Chicago Center
Tue 10:16:35 PM 42.1794 -85.5344 347° North 92 106 1,600 -439 Descending Chicago Center
Tue 10:17:37 PM 42.1989 -85.5403 347° North 82 94 1,300 -244 Descending Chicago Center
Tue 10:18:38 PM 42.2175 -85.5478 343° North 75 86 1,100 -197 Descending Chicago Center

Login

Don't have an account? Register now (free) for customized features, flight alerts, and more!